sensor_id;sensor_type;location;lat;lon;timestamp;pressure;altitude;pressure_sealevel;temperature;humidity
50672;BME280;46021;55.882;37.654;2023-02-21T00:00:00;97312.22;;;-14.04;71.54
50672;BME280;46021;55.882;37.654;2023-02-21T00:02:45;97315.66;;;-14.02;71.78
50672;BME280;46021;55.882;37.654;2023-02-21T00:05:30;97314.72;;;-14.06;72.00
50672;BME280;46021;55.882;37.654;2023-02-21T00:08:14;97314.78;;;-14.03;71.48
50672;BME280;46021;55.882;37.654;2023-02-21T00:10:59;97313.84;;;-14.06;71.84
50672;BME280;46021;55.882;37.654;2023-02-21T00:13:44;97314.66;;;-14.07;71.28
50672;BME280;46021;55.882;37.654;2023-02-21T00:16:29;97300.41;;;-14.10;71.56
50672;BME280;46021;55.882;37.654;2023-02-21T00:19:13;97306.19;;;-14.13;71.63
50672;BME280;46021;55.882;37.654;2023-02-21T00:21:58;97297.50;;;-14.25;71.95
50672;BME280;46021;55.882;37.654;2023-02-21T00:24:42;97296.50;;;-14.32;72.07
50672;BME280;46021;55.882;37.654;2023-02-21T00:27:28;97303.31;;;-14.26;71.49
50672;BME280;46021;55.882;37.654;2023-02-21T00:30:15;97298.03;;;-14.37;71.80
50672;BME280;46021;55.882;37.654;2023-02-21T00:32:59;97302.78;;;-14.46;71.69
50672;BME280;46021;55.882;37.654;2023-02-21T00:35:44;97294.38;;;-14.48;72.30
50672;BME280;46021;55.882;37.654;2023-02-21T00:38:29;97298.53;;;-14.49;71.76
50672;BME280;46021;55.882;37.654;2023-02-21T00:41:13;97294.16;;;-14.58;72.15
50672;BME280;46021;55.882;37.654;2023-02-21T00:43:58;97286.59;;;-14.61;72.04
50672;BME280;46021;55.882;37.654;2023-02-21T00:46:44;97297.13;;;-14.71;72.31
50672;BME280;46021;55.882;37.654;2023-02-21T00:49:28;97285.44;;;-14.72;71.80
50672;BME280;46021;55.882;37.654;2023-02-21T00:52:13;97286.28;;;-14.72;72.09
50672;BME280;46021;55.882;37.654;2023-02-21T00:54:58;97290.34;;;-14.75;71.70
50672;BME280;46021;55.882;37.654;2023-02-21T00:57:43;97278.56;;;-14.79;71.77
50672;BME280;46021;55.882;37.654;2023-02-21T01:00:27;97276.69;;;-14.86;72.09
50672;BME280;46021;55.882;37.654;2023-02-21T01:03:13;97277.25;;;-14.95;72.25
50672;BME280;46021;55.882;37.654;2023-02-21T01:05:58;97274.78;;;-14.94;71.91
50672;BME280;46021;55.882;37.654;2023-02-21T01:08:43;97271.25;;;-15.02;72.04
50672;BME280;46021;55.882;37.654;2023-02-21T01:11:29;97265.78;;;-15.17;72.27
50672;BME280;46021;55.882;37.654;2023-02-21T01:14:14;97258.34;;;-15.16;72.07
50672;BME280;46021;55.882;37.654;2023-02-21T01:16:59;97258.91;;;-15.24;71.41
50672;BME280;46021;55.882;37.654;2023-02-21T01:19:45;97247.03;;;-15.32;71.87
50672;BME280;46021;55.882;37.654;2023-02-21T01:22:32;97246.91;;;-15.36;71.72
50672;BME280;46021;55.882;37.654;2023-02-21T01:25:18;97243.19;;;-15.49;71.89
50672;BME280;46021;55.882;37.654;2023-02-21T01:28:03;97253.69;;;-15.59;72.10
50672;BME280;46021;55.882;37.654;2023-02-21T01:30:48;97241.50;;;-15.77;72.66
50672;BME280;46021;55.882;37.654;2023-02-21T01:33:37;97249.22;;;-15.70;72.64
50672;BME280;46021;55.882;37.654;2023-02-21T01:36:23;97251.38;;;-15.82;72.98
50672;BME280;46021;55.882;37.654;2023-02-21T01:39:09;97253.84;;;-15.82;72.90
50672;BME280;46021;55.882;37.654;2023-02-21T01:41:54;97242.88;;;-15.87;72.93
50672;BME280;46021;55.882;37.654;2023-02-21T01:44:40;97253.50;;;-15.93;72.95
50672;BME280;46021;55.882;37.654;2023-02-21T01:47:25;97254.16;;;-15.98;72.72
50672;BME280;46021;55.882;37.654;2023-02-21T01:50:18;97256.06;;;-15.91;72.78
50672;BME280;46021;55.882;37.654;2023-02-21T01:53:08;97248.75;;;-15.85;73.07
50672;BME280;46021;55.882;37.654;2023-02-21T01:55:54;97248.06;;;-15.81;73.08
50672;BME280;46021;55.882;37.654;2023-02-21T01:58:40;97245.75;;;-15.75;73.04
50672;BME280;46021;55.882;37.654;2023-02-21T02:01:32;97254.34;;;-15.65;72.77
50672;BME280;46021;55.882;37.654;2023-02-21T02:04:18;97251.16;;;-15.61;72.78
50672;BME280;46021;55.882;37.654;2023-02-21T02:07:03;97254.69;;;-15.54;72.50
50672;BME280;46021;55.882;37.654;2023-02-21T02:09:48;97249.78;;;-15.51;72.79
50672;BME280;46021;55.882;37.654;2023-02-21T02:12:52;97253.84;;;-15.55;72.67
50672;BME280;46021;55.882;37.654;2023-02-21T02:15:31;97249.97;;;-15.45;72.71
50672;BME280;46021;55.882;37.654;2023-02-21T02:18:26;97245.97;;;-15.40;72.77
50672;BME280;46021;55.882;37.654;2023-02-21T02:21:29;97249.72;;;-15.25;72.73
50672;BME280;46021;55.882;37.654;2023-02-21T02:27:36;97245.09;;;-15.13;71.98
50672;BME280;46021;55.882;37.654;2023-02-21T02:33:46;97239.94;;;-15.18;72.21
50672;BME280;46021;55.882;37.654;2023-02-21T02:36:20;97248.47;;;-15.11;71.90
50672;BME280;46021;55.882;37.654;2023-02-21T02:38:58;97247.59;;;-15.13;71.92
50672;BME280;46021;55.882;37.654;2023-02-21T02:41:34;97247.47;;;-15.16;71.77
50672;BME280;46021;55.882;37.654;2023-02-21T02:44:12;97244.91;;;-15.19;71.61
50672;BME280;46021;55.882;37.654;2023-02-21T02:46:42;97245.81;;;-15.17;71.76
50672;BME280;46021;55.882;37.654;2023-02-21T02:49:15;97245.81;;;-15.17;71.71
50672;BME280;46021;55.882;37.654;2023-02-21T02:51:47;97238.38;;;-15.16;71.50
50672;BME280;46021;55.882;37.654;2023-02-21T02:54:17;97242.41;;;-15.19;71.87
50672;BME280;46021;55.882;37.654;2023-02-21T02:56:45;97239.94;;;-15.18;71.74
50672;BME280;46021;55.882;37.654;2023-02-21T02:59:16;97244.94;;;-15.18;71.87
50672;BME280;46021;55.882;37.654;2023-02-21T03:02:06;97237.59;;;-15.13;71.54
50672;BME280;46021;55.882;37.654;2023-02-21T03:07:47;97235.72;;;-15.20;71.35
50672;BME280;46021;55.882;37.654;2023-02-21T03:10:24;97238.66;;;-15.34;71.18
50672;BME280;46021;55.882;37.654;2023-02-21T03:13:01;97235.25;;;-15.36;71.15
50672;BME280;46021;55.882;37.654;2023-02-21T03:15:38;97247.41;;;-15.46;71.11
50672;BME280;46021;55.882;37.654;2023-02-21T03:18:13;97231.25;;;-15.58;71.10
50672;BME280;46021;55.882;37.654;2023-02-21T03:20:44;97233.38;;;-15.70;71.07
50672;BME280;46021;55.882;37.654;2023-02-21T03:23:17;97237.94;;;-15.85;71.43
50672;BME280;46021;55.882;37.654;2023-02-21T03:25:47;97233.38;;;-15.97;71.72
50672;BME280;46021;55.882;37.654;2023-02-21T03:28:17;97234.91;;;-16.02;71.57
50672;BME280;46021;55.882;37.654;2023-02-21T03:30:47;97242.97;;;-16.10;72.00
50672;BME280;46021;55.882;37.654;2023-02-21T03:33:17;97240.47;;;-16.10;71.46
50672;BME280;46021;55.882;37.654;2023-02-21T03:35:44;97240.47;;;-16.10;71.93
50672;BME280;46021;55.882;37.654;2023-02-21T03:38:12;97242.22;;;-16.07;71.88
50672;BME280;46021;55.882;37.654;2023-02-21T03:40:41;97243.81;;;-16.09;71.76
50672;BME280;46021;55.882;37.654;2023-02-21T03:43:09;97238.53;;;-16.18;71.63
50672;BME280;46021;55.882;37.654;2023-02-21T03:45:47;97237.38;;;-16.28;71.88
50672;BME280;46021;55.882;37.654;2023-02-21T03:48:17;97239.16;;;-16.24;71.82
50672;BME280;46021;55.882;37.654;2023-02-21T03:50:44;97234.75;;;-16.33;71.61
50672;BME280;46021;55.882;37.654;2023-02-21T03:53:13;97238.06;;;-16.32;71.91
50672;BME280;46021;55.882;37.654;2023-02-21T03:55:44;97243.53;;;-16.42;71.88
50672;BME280;46021;55.882;37.654;2023-02-21T03:58:20;97239.41;;;-16.42;71.98
50672;BME280;46021;55.882;37.654;2023-02-21T04:00:47;97237.69;;;-16.43;71.83
50672;BME280;46021;55.882;37.654;2023-02-21T04:03:16;97234.38;;;-16.43;71.79
50672;BME280;46021;55.882;37.654;2023-02-21T04:05:52;97239.47;;;-16.40;71.33
50672;BME280;46021;55.882;37.654;2023-02-21T04:08:20;97230.09;;;-16.47;71.84
50672;BME280;46021;55.882;37.654;2023-02-21T04:10:49;97226.78;;;-16.46;71.34
50672;BME280;46021;55.882;37.654;2023-02-21T04:13:16;97228.28;;;-16.52;71.47
50672;BME280;46021;55.882;37.654;2023-02-21T04:15:45;97235.66;;;-16.55;71.77
50672;BME280;46021;55.882;37.654;2023-02-21T04:18:12;97237.19;;;-16.58;71.66
50672;BME280;46021;55.882;37.654;2023-02-21T04:20:40;97241.22;;;-16.62;71.75
50672;BME280;46021;55.882;37.654;2023-02-21T04:23:13;97236.22;;;-16.62;71.91
50672;BME280;46021;55.882;37.654;2023-02-21T04:25:41;97240.44;;;-16.61;72.30
50672;BME280;46021;55.882;37.654;2023-02-21T04:28:15;97238.91;;;-16.57;72.47
50672;BME280;46021;55.882;37.654;2023-02-21T04:30:42;97247.31;;;-16.54;72.14
50672;BME280;46021;55.882;37.654;2023-02-21T04:33:09;97243.97;;;-16.54;71.81
50672;BME280;46021;55.882;37.654;2023-02-21T04:35:36;97251.19;;;-16.62;71.85
50672;BME280;46021;55.882;37.654;2023-02-21T04:38:12;97248.00;;;-16.58;71.86
50672;BME280;46021;55.882;37.654;2023-02-21T04:40:39;97243.63;;;-16.65;71.89
50672;BME280;46021;55.882;37.654;2023-02-21T04:43:06;97243.69;;;-16.62;71.92
50672;BME280;46021;55.882;37.654;2023-02-21T04:45:34;97249.38;;;-16.66;71.66
50672;BME280;46021;55.882;37.654;2023-02-21T04:48:02;97244.75;;;-16.79;72.16
50672;BME280;46021;55.882;37.654;2023-02-21T04:50:29;97250.78;;;-16.74;71.94
50672;BME280;46021;55.882;37.654;2023-02-21T04:52:56;97252.66;;;-16.67;71.93
50672;BME280;46021;55.882;37.654;2023-02-21T04:55:23;97252.78;;;-16.64;71.88
50672;BME280;46021;55.882;37.654;2023-02-21T04:57:50;97257.75;;;-16.64;71.85
50672;BME280;46021;55.882;37.654;2023-02-21T05:00:17;97253.34;;;-16.71;71.96
50672;BME280;46021;55.882;37.654;2023-02-21T05:02:47;97252.66;;;-16.67;71.86
50672;BME280;46021;55.882;37.654;2023-02-21T05:05:14;97252.78;;;-16.64;71.86
50672;BME280;46021;55.882;37.654;2023-02-21T05:07:41;97259.56;;;-16.60;72.11
50672;BME280;46021;55.882;37.654;2023-02-21T05:10:09;97249.91;;;-16.51;72.04
50672;BME280;46021;55.882;37.654;2023-02-21T05:12:37;97255.34;;;-16.38;72.49
50672;BME280;46021;55.882;37.654;2023-02-21T05:15:04;97260.00;;;-16.23;72.47
50672;BME280;46021;55.882;37.654;2023-02-21T05:17:32;97252.75;;;-16.16;71.95
50672;BME280;46021;55.882;37.654;2023-02-21T05:20:00;97256.34;;;-16.07;72.03
50672;BME280;46021;55.882;37.654;2023-02-21T05:22:29;97259.03;;;-16.01;71.47
50672;BME280;46021;55.882;37.654;2023-02-21T05:24:56;97265.69;;;-16.02;71.34
50672;BME280;46021;55.882;37.654;2023-02-21T05:27:23;97253.16;;;-16.03;70.81
50672;BME280;46021;55.882;37.654;2023-02-21T05:29:52;97259.16;;;-15.98;70.92
50672;BME280;46021;55.882;37.654;2023-02-21T05:32:20;97261.69;;;-15.97;70.63
50672;BME280;46021;55.882;37.654;2023-02-21T05:34:48;97258.34;;;-15.97;70.87
50672;BME280;46021;55.882;37.654;2023-02-21T05:37:16;97260.09;;;-15.95;70.93
50672;BME280;46021;55.882;37.654;2023-02-21T05:39:45;97259.28;;;-15.94;70.65
50672;BME280;46021;55.882;37.654;2023-02-21T05:42:13;97266.38;;;-15.80;70.79
50672;BME280;46021;55.882;37.654;2023-02-21T05:44:44;97258.75;;;-15.85;70.02
50672;BME280;46021;55.882;37.654;2023-02-21T05:47:11;97264.19;;;-15.70;70.31
50672;BME280;46021;55.882;37.654;2023-02-21T05:49:38;97264.19;;;-15.70;70.41
50672;BME280;46021;55.882;37.654;2023-02-21T05:52:06;97260.72;;;-15.75;69.49
50672;BME280;46021;55.882;37.654;2023-02-21T05:54:35;97251.59;;;-15.73;69.87
50672;BME280;46021;55.882;37.654;2023-02-21T05:57:04;97264.13;;;-15.71;69.73
50672;BME280;46021;55.882;37.654;2023-02-21T05:59:31;97253.94;;;-15.79;69.08
50672;BME280;46021;55.882;37.654;2023-02-21T06:01:58;97257.31;;;-15.77;69.36
50672;BME280;46021;55.882;37.654;2023-02-21T06:04:25;97263.28;;;-15.73;69.40
50672;BME280;46021;55.882;37.654;2023-02-21T06:06:52;97268.53;;;-15.64;69.72
50672;BME280;46021;55.882;37.654;2023-02-21T06:09:20;97263.72;;;-15.58;69.29
50672;BME280;46021;55.882;37.654;2023-02-21T06:11:48;97260.38;;;-15.58;69.33
50672;BME280;46021;55.882;37.654;2023-02-21T06:14:17;97270.50;;;-15.54;68.88
50672;BME280;46021;55.882;37.654;2023-02-21T06:16:45;97269.38;;;-15.63;68.68
50672;BME280;46021;55.882;37.654;2023-02-21T06:19:13;97269.75;;;-15.78;68.41
50672;BME280;46021;55.882;37.654;2023-02-21T06:21:41;97268.28;;;-15.72;68.21
50672;BME280;46021;55.882;37.654;2023-02-21T06:24:09;97263.47;;;-15.65;68.35
50672;BME280;46021;55.882;37.654;2023-02-21T06:26:37;97271.72;;;-15.68;68.74
50672;BME280;46021;55.882;37.654;2023-02-21T06:29:07;97266.78;;;-15.66;68.31
50672;BME280;46021;55.882;37.654;2023-02-21T06:31:34;97268.47;;;-15.65;68.38
50672;BME280;46021;55.882;37.654;2023-02-21T06:34:02;97259.31;;;-15.66;68.51
50672;BME280;46021;55.882;37.654;2023-02-21T06:36:30;97266.97;;;-15.60;68.53
50672;BME280;46021;55.882;37.654;2023-02-21T06:38:57;97263.34;;;-15.70;68.07
50672;BME280;46021;55.882;37.654;2023-02-21T06:41:26;97256.00;;;-15.65;68.12
50672;BME280;46021;55.882;37.654;2023-02-21T06:43:54;97268.94;;;-15.50;68.36
50672;BME280;46021;55.882;37.654;2023-02-21T06:46:25;97272.34;;;-15.48;67.96
50672;BME280;46021;55.882;37.654;2023-02-21T06:48:53;97275.84;;;-15.43;68.17
50672;BME280;46021;55.882;37.654;2023-02-21T06:51:20;97276.81;;;-15.38;68.09
50672;BME280;46021;55.882;37.654;2023-02-21T06:53:54;97275.03;;;-15.42;67.59
50672;BME280;46021;55.882;37.654;2023-02-21T06:56:22;97271.53;;;-15.47;68.16
50672;BME280;46021;55.882;37.654;2023-02-21T06:58:49;97277.00;;;-15.32;68.21
50672;BME280;46021;55.882;37.654;2023-02-21T07:01:16;97280.50;;;-15.26;67.72
50672;BME280;46021;55.882;37.654;2023-02-21T07:03:45;97279.25;;;-15.12;67.92
50672;BME280;46021;55.882;37.654;2023-02-21T07:06:13;97284.91;;;-14.90;68.57
50672;BME280;46021;55.882;37.654;2023-02-21T07:08:40;97278.19;;;-14.92;67.74
50672;BME280;46021;55.882;37.654;2023-02-21T07:11:08;97278.34;;;-14.87;67.33
50672;BME280;46021;55.882;37.654;2023-02-21T07:13:35;97281.63;;;-14.88;67.20
50672;BME280;46021;55.882;37.654;2023-02-21T07:16:03;97282.19;;;-14.98;66.74
50672;BME280;46021;55.882;37.654;2023-02-21T07:18:31;97264.47;;;-15.06;67.36
50672;BME280;46021;55.882;37.654;2023-02-21T07:20:59;97285.97;;;-15.11;66.63
50672;BME280;46021;55.882;37.654;2023-02-21T07:23:26;97279.53;;;-15.03;67.05
50672;BME280;46021;55.882;37.654;2023-02-21T07:25:53;97275.75;;;-14.90;67.12
50672;BME280;46021;55.882;37.654;2023-02-21T07:28:21;97285.44;;;-14.72;67.25
50672;BME280;46021;55.882;37.654;2023-02-21T07:30:48;97277.25;;;-14.66;67.17
50672;BME280;46021;55.882;37.654;2023-02-21T07:33:15;97277.75;;;-14.46;67.21
50672;BME280;46021;55.882;37.654;2023-02-21T07:35:42;97264.75;;;-14.33;67.38
50672;BME280;46021;55.882;37.654;2023-02-21T07:38:20;97271.16;;;-14.13;67.13
50672;BME280;46021;55.882;37.654;2023-02-21T07:40:47;97269.03;;;-13.97;67.08
50672;BME280;46021;55.882;37.654;2023-02-21T07:43:14;97272.03;;;-13.77;67.16
50672;BME280;46021;55.882;37.654;2023-02-21T07:45:42;97269.94;;;-13.60;66.57
50672;BME280;46021;55.882;37.654;2023-02-21T07:48:09;97275.00;;;-13.57;66.32
50672;BME280;46021;55.882;37.654;2023-02-21T07:50:39;97279.19;;;-13.58;65.57
50672;BME280;46021;55.882;37.654;2023-02-21T07:53:06;97276.59;;;-13.62;65.96
50672;BME280;46021;55.882;37.654;2023-02-21T07:55:35;97278.84;;;-13.71;65.50
50672;BME280;46021;55.882;37.654;2023-02-21T07:58:02;97273.19;;;-13.64;66.46
50672;BME280;46021;55.882;37.654;2023-02-21T08:00:30;97278.47;;;-13.52;66.54
50672;BME280;46021;55.882;37.654;2023-02-21T08:02:58;97268.31;;;-13.58;65.56
50672;BME280;46021;55.882;37.654;2023-02-21T08:05:25;97272.59;;;-13.54;65.55
50672;BME280;46021;55.882;37.654;2023-02-21T08:07:52;97281.31;;;-13.38;65.73
50672;BME280;46021;55.882;37.654;2023-02-21T08:10:22;97271.78;;;-13.53;65.74
50672;BME280;46021;55.882;37.654;2023-02-21T08:12:51;97279.91;;;-13.25;66.31
50672;BME280;46021;55.882;37.654;2023-02-21T08:15:18;97278.41;;;-13.19;65.69
50672;BME280;46021;55.882;37.654;2023-02-21T08:17:47;97273.75;;;-13.02;65.67
50672;BME280;46021;55.882;37.654;2023-02-21T08:20:14;97285.94;;;-12.79;65.94
50672;BME280;46021;55.882;37.654;2023-02-21T08:22:42;97279.41;;;-12.71;65.49
50672;BME280;46021;55.882;37.654;2023-02-21T08:25:09;97278.53;;;-12.73;64.93
50672;BME280;46021;55.882;37.654;2023-02-21T08:27:38;97287.13;;;-12.62;64.07
50672;BME280;46021;55.882;37.654;2023-02-21T08:30:08;97265.94;;;-12.75;64.54
50672;BME280;46021;55.882;37.654;2023-02-21T08:32:36;97286.84;;;-12.74;64.49
50672;BME280;46021;55.882;37.654;2023-02-21T08:35:04;97284.06;;;-12.48;64.63
50672;BME280;46021;55.882;37.654;2023-02-21T08:37:31;97285.97;;;-12.35;64.81
50672;BME280;46021;55.882;37.654;2023-02-21T08:40:01;97277.88;;;-12.22;63.85
50672;BME280;46021;55.882;37.654;2023-02-21T08:42:30;97268.69;;;-12.20;63.89
50672;BME280;46021;55.882;37.654;2023-02-21T08:44:57;97287.84;;;-12.25;63.39
50672;BME280;46021;55.882;37.654;2023-02-21T08:47:26;97288.81;;;-12.18;64.07
50672;BME280;46021;55.882;37.654;2023-02-21T08:49:53;97283.16;;;-12.06;63.64
50672;BME280;46021;55.882;37.654;2023-02-21T08:52:20;97285.16;;;-11.90;63.45
50672;BME280;46021;55.882;37.654;2023-02-21T08:54:47;97292.91;;;-11.74;63.18
50672;BME280;46021;55.882;37.654;2023-02-21T08:57:14;97270.38;;;-11.71;63.17
50672;BME280;46021;55.882;37.654;2023-02-21T08:59:42;97295.06;;;-11.46;63.12
50672;BME280;46021;55.882;37.654;2023-02-21T09:02:15;97281.25;;;-10.55;66.82
50672;BME280;46021;55.882;37.654;2023-02-21T09:04:44;97283.81;;;-8.54;64.75
50672;BME280;46021;55.882;37.654;2023-02-21T09:07:11;97280.59;;;-6.35;60.01
50672;BME280;46021;55.882;37.654;2023-02-21T09:09:39;97268.78;;;-5.09;56.42
50672;BME280;46021;55.882;37.654;2023-02-21T09:12:07;97258.34;;;-4.02;52.45
50672;BME280;46021;55.882;37.654;2023-02-21T09:14:34;97268.22;;;-3.23;52.56
50672;BME280;46021;55.882;37.654;2023-02-21T09:17:01;97250.56;;;-1.92;49.75
50672;BME280;46021;55.882;37.654;2023-02-21T09:19:28;97261.22;;;-0.34;49.94
50672;BME280;46021;55.882;37.654;2023-02-21T09:21:57;97265.72;;;1.28;47.35
50672;BME280;46021;55.882;37.654;2023-02-21T09:24:25;97247.91;;;2.65;46.99
50672;BME280;46021;55.882;37.654;2023-02-21T09:26:53;97252.66;;;3.39;44.13
50672;BME280;46021;55.882;37.654;2023-02-21T09:29:24;97252.38;;;3.66;41.94
50672;BME280;46021;55.882;37.654;2023-02-21T09:31:51;97250.13;;;3.98;43.55
50672;BME280;46021;55.882;37.654;2023-02-21T09:34:19;97268.81;;;4.03;44.96
50672;BME280;46021;55.882;37.654;2023-02-21T09:36:47;97257.66;;;4.02;46.47
50672;BME280;46021;55.882;37.654;2023-02-21T09:39:17;97255.84;;;4.04;49.35
50672;BME280;46021;55.882;37.654;2023-02-21T09:41:44;97259.88;;;2.66;48.75
50672;BME280;46021;55.882;37.654;2023-02-21T09:44:15;97260.28;;;1.63;49.27
50672;BME280;46021;55.882;37.654;2023-02-21T09:46:45;97263.88;;;0.52;51.72
50672;BME280;46021;55.882;37.654;2023-02-21T09:49:18;97263.31;;;-0.82;50.98
50672;BME280;46021;55.882;37.654;2023-02-21T09:51:48;97259.28;;;-1.26;53.96
50672;BME280;46021;55.882;37.654;2023-02-21T09:54:23;97254.63;;;-1.85;52.42
50672;BME280;46021;55.882;37.654;2023-02-21T09:56:51;97257.47;;;-1.98;56.46
50672;BME280;46021;55.882;37.654;2023-02-21T09:59:20;97268.75;;;-2.08;54.52
50672;BME280;46021;55.882;37.654;2023-02-21T10:01:55;97259.81;;;-2.76;49.47
50672;BME280;46021;55.882;37.654;2023-02-21T10:04:34;97257.66;;;-2.52;55.89
50672;BME280;46021;55.882;37.654;2023-02-21T10:07:09;97262.84;;;-2.55;53.79
50672;BME280;46021;55.882;37.654;2023-02-21T10:09:45;97269.63;;;-3.04;53.76
50672;BME280;46021;55.882;37.654;2023-02-21T10:12:21;97261.84;;;-4.11;54.68
50672;BME280;46021;55.882;37.654;2023-02-21T10:15:24;97275.91;;;-4.55;52.53
50672;BME280;46021;55.882;37.654;2023-02-21T10:17:59;97276.78;;;-3.27;57.75
50672;BME280;46021;55.882;37.654;2023-02-21T10:20:34;97262.75;;;-2.07;51.25
50672;BME280;46021;55.882;37.654;2023-02-21T10:23:04;97278.31;;;-0.68;60.66
50672;BME280;46021;55.882;37.654;2023-02-21T10:25:41;97266.91;;;-0.56;55.52
50672;BME280;46021;55.882;37.654;2023-02-21T10:28:16;97275.41;;;-1.23;54.77
50672;BME280;46021;55.882;37.654;2023-02-21T10:30:44;97296.75;;;-2.50;55.52
50672;BME280;46021;55.882;37.654;2023-02-21T10:33:12;97294.59;;;-3.26;56.96
50672;BME280;46021;55.882;37.654;2023-02-21T10:35:40;97289.38;;;-3.17;55.82
50672;BME280;46021;55.882;37.654;2023-02-21T10:38:11;97299.38;;;-3.04;52.51
50672;BME280;46021;55.882;37.654;2023-02-21T10:40:41;97305.63;;;-2.71;53.37
50672;BME280;46021;55.882;37.654;2023-02-21T10:43:12;97292.25;;;-3.38;46.58
50672;BME280;46021;55.882;37.654;2023-02-21T10:45:46;97301.84;;;-2.50;53.08
50672;BME280;46021;55.882;37.654;2023-02-21T10:48:15;97301.63;;;-2.38;53.78
50672;BME280;46021;55.882;37.654;2023-02-21T10:50:50;97306.53;;;-1.44;55.14
50672;BME280;46021;55.882;37.654;2023-02-21T10:53:26;97318.47;;;-0.70;55.38
50672;BME280;46021;55.882;37.654;2023-02-21T10:56:21;97300.88;;;0.43;53.16
50672;BME280;46021;55.882;37.654;2023-02-21T10:58:50;97295.09;;;0.93;56.59
50672;BME280;46021;55.882;37.654;2023-02-21T11:01:20;97312.47;;;1.38;57.44
50672;BME280;46021;55.882;37.654;2023-02-21T11:03:51;97318.41;;;1.89;57.39
50672;BME280;46021;55.882;37.654;2023-02-21T11:06:31;97305.94;;;1.53;48.66
50672;BME280;46021;55.882;37.654;2023-02-21T11:08:59;97308.75;;;0.65;51.86
50672;BME280;46021;55.882;37.654;2023-02-21T11:11:34;97321.69;;;0.03;48.47
50672;BME280;46021;55.882;37.654;2023-02-21T11:14:22;97321.47;;;0.10;46.59
50672;BME280;46021;55.882;37.654;2023-02-21T11:17:13;97317.66;;;0.53;52.55
50672;BME280;46021;55.882;37.654;2023-02-21T11:19:42;97319.28;;;0.56;51.24
50672;BME280;46021;55.882;37.654;2023-02-21T11:22:10;97306.88;;;-0.19;49.05
50672;BME280;46021;55.882;37.654;2023-02-21T11:24:51;97329.00;;;0.74;51.21
50672;BME280;46021;55.882;37.654;2023-02-21T11:27:21;97333.38;;;1.26;53.61
50672;BME280;46021;55.882;37.654;2023-02-21T11:29:49;97327.22;;;0.76;50.47
50672;BME280;46021;55.882;37.654;2023-02-21T11:32:25;97325.47;;;1.05;52.33
50672;BME280;46021;55.882;37.654;2023-02-21T11:35:06;97330.03;;;0.97;47.16
50672;BME280;46021;55.882;37.654;2023-02-21T11:37:46;97336.81;;;1.25;52.98
50672;BME280;46021;55.882;37.654;2023-02-21T11:40:22;97335.38;;;1.17;48.01
50672;BME280;46021;55.882;37.654;2023-02-21T11:42:51;97340.13;;;1.02;50.59
50672;BME280;46021;55.882;37.654;2023-02-21T11:45:36;97335.19;;;0.67;49.33
50672;BME280;46021;55.882;37.654;2023-02-21T11:48:10;97346.91;;;1.31;51.88
50672;BME280;46021;55.882;37.654;2023-02-21T11:50:45;97344.47;;;1.26;48.71
50672;BME280;46021;55.882;37.654;2023-02-21T11:53:22;97345.63;;;1.17;50.89
50672;BME280;46021;55.882;37.654;2023-02-21T11:55:54;97346.94;;;0.74;49.28
50672;BME280;46021;55.882;37.654;2023-02-21T11:58:30;97341.53;;;0.55;49.14
50672;BME280;46021;55.882;37.654;2023-02-21T12:01:03;97345.69;;;0.60;47.54
50672;BME280;46021;55.882;37.654;2023-02-21T12:03:42;97353.75;;;0.75;48.00
50672;BME280;46021;55.882;37.654;2023-02-21T12:06:17;97357.59;;;-0.01;45.20
50672;BME280;46021;55.882;37.654;2023-02-21T12:08:50;97359.19;;;-0.28;45.74
50672;BME280;46021;55.882;37.654;2023-02-21T12:11:43;97364.09;;;-0.53;42.58
50672;BME280;46021;55.882;37.654;2023-02-21T12:14:30;97367.00;;;-0.01;47.48
50672;BME280;46021;55.882;37.654;2023-02-21T12:17:16;97362.34;;;0.45;46.86
50672;BME280;46021;55.882;37.654;2023-02-21T12:20:02;97378.03;;;0.03;42.15
50672;BME280;46021;55.882;37.654;2023-02-21T12:22:44;97383.78;;;-0.56;41.69
50672;BME280;46021;55.882;37.654;2023-02-21T12:25:20;97380.31;;;-0.90;45.04
50672;BME280;46021;55.882;37.654;2023-02-21T12:27:53;97383.69;;;-1.69;44.38
50672;BME280;46021;55.882;37.654;2023-02-21T12:30:36;97397.00;;;-2.45;44.75
50672;BME280;46021;55.882;37.654;2023-02-21T12:33:18;97396.22;;;-3.04;45.63
50672;BME280;46021;55.882;37.654;2023-02-21T12:36:01;97396.63;;;-3.35;44.56
50672;BME280;46021;55.882;37.654;2023-02-21T12:38:45;97403.56;;;-3.46;45.62
50672;BME280;46021;55.882;37.654;2023-02-21T12:41:28;97404.66;;;-3.63;44.86
50672;BME280;46021;55.882;37.654;2023-02-21T12:44:03;97404.50;;;-3.54;45.05
50672;BME280;46021;55.882;37.654;2023-02-21T12:46:38;97419.31;;;-3.15;45.62
50672;BME280;46021;55.882;37.654;2023-02-21T12:49:11;97423.72;;;-3.28;47.24
50672;BME280;46021;55.882;37.654;2023-02-21T12:51:43;97422.38;;;-3.57;45.81
50672;BME280;46021;55.882;37.654;2023-02-21T12:54:14;97430.56;;;-4.04;43.40
50672;BME280;46021;55.882;37.654;2023-02-21T12:56:46;97431.44;;;-4.10;46.84
50672;BME280;46021;55.882;37.654;2023-02-21T12:59:19;97438.28;;;-4.15;47.79
50672;BME280;46021;55.882;37.654;2023-02-21T13:01:52;97440.06;;;-4.23;45.76
50672;BME280;46021;55.882;37.654;2023-02-21T13:04:30;97449.03;;;-4.89;44.27
50672;BME280;46021;55.882;37.654;2023-02-21T13:07:03;97439.03;;;-5.14;48.82
50672;BME280;46021;55.882;37.654;2023-02-21T13:09:38;97454.50;;;-5.72;46.21
50672;BME280;46021;55.882;37.654;2023-02-21T13:12:09;97451.16;;;-5.93;47.42
50672;BME280;46021;55.882;37.654;2023-02-21T13:14:42;97461.38;;;-5.99;48.64
50672;BME280;46021;55.882;37.654;2023-02-21T13:17:14;97463.91;;;-5.99;49.20
50672;BME280;46021;55.882;37.654;2023-02-21T13:19:44;97454.63;;;-6.12;49.19
50672;BME280;46021;55.882;37.654;2023-02-21T13:22:31;97474.91;;;-6.12;48.61
50672;BME280;46021;55.882;37.654;2023-02-21T13:25:21;97476.59;;;-6.54;47.73
50672;BME280;46021;55.882;37.654;2023-02-21T13:27:55;97479.94;;;-6.91;49.45